Time;durP1;ratioP1;P1;durP2;ratioP2;P2;SDS_P1;SDS_P2;PMS_P1;PMS_P2;Temp;Humidity;BMP_temperature;BMP_pressure;BME280_temperature;BME280_humidity;BME280_pressure;Samples;Min_cycle;Max_cycle;Signal;HPM_P1;HPM_P2
2021/12/11 00:01:53;;;;;;;17.20;9.50;;;2.60;85.20;;;;;;5093488;28;20020;-75
2021/12/11 00:04:33;;;;;;;17.88;9.05;;;2.60;85.40;;;;;;5093779;28;20126;-74
2021/12/11 00:07:02;;;;;;;15.50;8.90;;;2.60;85.50;;;;;;5093333;28;20035;-74
2021/12/11 00:09:43;;;;;;;17.98;9.02;;;2.50;85.50;;;;;;5093690;28;20036;-74
2021/12/11 00:12:12;;;;;;;22.33;10.65;;;2.50;85.50;;;;;;5093321;28;20024;-74
2021/12/11 00:14:42;;;;;;;21.30;11.27;;;2.50;85.60;;;;;;5094587;28;20050;-74
2021/12/11 00:17:08;;;;;;;19.10;9.73;;;2.40;85.70;;;;;;5093121;28;20040;-74
2021/12/11 00:19:36;;;;;;;20.65;10.73;;;2.40;85.90;;;;;;5093250;28;20546;-74
2021/12/11 00:22:13;;;;;;;16.90;9.77;;;2.40;86.00;;;;;;5093117;28;20032;-75
2021/12/11 00:24:40;;;;;;;15.15;9.38;;;2.40;86.10;;;;;;5094260;28;20166;-74
2021/12/11 00:27:17;;;;;;;16.98;9.90;;;2.50;86.20;;;;;;5093039;28;20032;-74
2021/12/11 00:29:43;;;;;;;24.10;10.75;;;2.40;86.20;;;;;;5094461;28;20016;-74
2021/12/11 00:32:41;;;;;;;22.25;10.52;;;2.40;86.20;;;;;;5092834;28;20035;-74
2021/12/11 00:35:12;;;;;;;17.42;9.95;;;2.50;86.40;;;;;;5081484;28;20043;-74
2021/12/11 00:37:39;;;;;;;20.02;10.00;;;2.50;86.40;;;;;;5094265;28;20112;-74
2021/12/11 00:40:21;;;;;;;22.70;10.73;;;2.50;86.30;;;;;;5092804;28;20028;-74
2021/12/11 00:42:49;;;;;;;20.65;9.88;;;2.50;86.40;;;;;;5094027;28;20061;-74
2021/12/11 00:45:19;;;;;;;25.10;10.77;;;2.60;86.40;;;;;;5092662;28;20027;-74
2021/12/11 00:47:58;;;;;;;22.10;10.95;;;2.60;86.50;;;;;;5093988;28;20020;-75
2021/12/11 00:50:31;;;;;;;24.08;11.18;;;2.60;86.40;;;;;;5094016;28;20035;-74
2021/12/11 00:53:10;;;;;;;19.52;10.52;;;2.70;86.40;;;;;;5093810;28;20035;-73
2021/12/11 00:56:08;;;;;;;16.88;10.15;;;2.70;86.40;;;;;;5093903;28;20052;-74
2021/12/11 00:58:36;;;;;;;18.75;9.38;;;2.70;86.40;;;;;;5087697;28;20040;-73
2021/12/11 01:01:07;;;;;;;20.90;10.68;;;2.80;86.40;;;;;;5092102;28;20113;-74
2021/12/11 01:03:41;;;;;;;17.17;10.13;;;2.80;86.30;;;;;;5093399;28;20027;-73
2021/12/11 01:06:13;;;;;;;21.55;10.40;;;2.90;86.30;;;;;;5092410;28;20039;-74
2021/12/11 01:08:43;;;;;;;19.00;10.30;;;2.90;86.30;;;;;;5092222;28;20024;-74
2021/12/11 01:11:20;;;;;;;24.45;11.65;;;2.90;86.30;;;;;;5092164;28;20020;-74
2021/12/11 01:14:06;;;;;;;20.02;10.60;;;3.00;86.30;;;;;;5092113;28;20047;-74
2021/12/11 01:16:33;;;;;;;14.88;9.40;;;3.00;86.20;;;;;;5091989;28;20447;-74
2021/12/11 01:19:03;;;;;;;14.50;8.82;;;3.00;86.10;;;;;;5093274;28;20103;-74
2021/12/11 01:26:57;;;;;;;21.38;10.73;;;2.90;86.00;;;;;;5093691;28;20281;-73
2021/12/11 01:29:24;;;;;;;16.65;9.95;;;3.00;86.40;;;;;;5091986;28;20436;-74
2021/12/11 01:31:52;;;;;;;18.45;9.95;;;3.00;86.00;;;;;;5094121;28;20115;-82
2021/12/11 01:34:18;;;;;;;18.48;9.80;;;3.00;86.00;;;;;;5092902;28;20537;-81
2021/12/11 01:36:46;;;;;;;15.00;9.90;;;3.00;85.90;;;;;;5092858;28;20048;-81
2021/12/11 01:39:16;;;;;;;15.13;9.43;;;3.00;85.90;;;;;;5094242;28;20028;-82
2021/12/11 01:41:44;;;;;;;15.35;8.98;;;3.10;86.00;;;;;;5092917;28;20034;-82
2021/12/11 01:44:17;;;;;;;15.70;8.50;;;3.00;85.90;;;;;;5092585;28;20070;-83
2021/12/11 01:46:43;;;;;;;18.60;8.87;;;3.10;86.00;;;;;;5093954;28;20438;-81
2021/12/11 01:49:18;;;;;;;16.33;8.95;;;3.10;85.90;;;;;;5092577;28;20536;-81
2021/12/11 01:51:53;;;;;;;14.30;8.88;;;3.00;85.90;;;;;;5093335;28;20028;-82
2021/12/11 01:54:30;;;;;;;19.15;10.50;;;3.10;85.90;;;;;;5093687;28;20046;-82
2021/12/11 01:57:02;;;;;;;15.85;9.38;;;3.10;86.00;;;;;;5093860;28;20503;-81
2021/12/11 01:59:32;;;;;;;12.35;8.10;;;3.10;86.00;;;;;;5095355;28;20032;-82
2021/12/11 02:02:20;;;;;;;16.45;8.93;;;3.10;85.90;;;;;;5093937;28;20024;-82
2021/12/11 02:04:49;;;;;;;17.15;8.95;;;3.10;85.90;;;;;;5095163;28;20039;-81
2021/12/11 02:07:28;;;;;;;17.02;9.45;;;3.10;85.90;;;;;;5093748;28;20114;-82
2021/12/11 02:09:57;;;;;;;16.10;10.02;;;3.10;86.00;;;;;;5094884;28;20036;-82
2021/12/11 02:12:34;;;;;;;13.70;9.20;;;3.10;86.00;;;;;;5094726;28;20024;-82
2021/12/11 02:15:02;;;;;;;13.93;9.20;;;3.10;86.00;;;;;;5097384;28;20016;-82
2021/12/11 02:17:42;;;;;;;16.80;9.50;;;3.10;86.00;;;;;;5097377;28;20055;-82
2021/12/11 02:20:11;;;;;;;14.45;9.30;;;3.10;86.00;;;;;;5098208;28;20063;-81
2021/12/11 02:22:43;;;;;;;16.70;9.57;;;3.10;86.10;;;;;;5097141;28;20096;-81
2021/12/11 02:25:15;;;;;;;14.73;9.18;;;3.10;86.70;;;;;;5096924;28;20024;-82
2021/12/11 02:27:46;;;;;;;13.13;8.82;;;3.10;86.00;;;;;;5097066;28;20092;-81
2021/12/11 02:30:24;;;;;;;13.32;8.63;;;3.10;86.00;;;;;;5097035;28;20077;-82
2021/12/11 02:33:19;;;;;;;12.82;8.32;;;3.10;86.00;;;;;;5096914;28;20488;-82
2021/12/11 02:36:10;;;;;;;12.23;8.20;;;3.10;85.90;;;;;;5096616;28;20020;-81
2021/12/11 02:38:51;;;;;;;13.23;8.77;;;3.00;85.90;;;;;;5097969;28;20537;-81
2021/12/11 02:41:38;;;;;;;17.85;8.93;;;3.00;85.90;;;;;;5096736;28;20254;-82
2021/12/11 02:44:24;;;;;;;12.25;8.52;;;3.00;85.90;;;;;;5096567;28;20040;-81
2021/12/11 02:47:21;;;;;;;13.65;8.00;;;3.00;85.90;;;;;;5096354;28;20024;-71
2021/12/11 02:50:13;;;;;;;13.48;8.93;;;2.90;85.80;;;;;;5094898;28;20028;-71
2021/12/11 02:52:43;;;;;;;13.02;8.07;;;2.90;85.80;;;;;;5094780;28;20036;-71
2021/12/11 02:55:33;;;;;;;13.02;8.63;;;2.90;85.80;;;;;;5094706;28;20052;-72
2021/12/11 02:58:18;;;;;;;12.50;9.23;;;2.80;85.80;;;;;;5094728;28;20032;-71
2021/12/11 03:00:51;;;;;;;15.43;8.90;;;2.80;85.80;;;;;;5091712;28;20031;-71
2021/12/11 03:03:26;;;;;;;16.85;9.52;;;2.80;85.90;;;;;;5094755;28;20043;-70
2021/12/11 03:06:02;;;;;;;12.57;8.45;;;2.80;85.90;;;;;;5095864;28;20031;-71
2021/12/11 03:08:28;;;;;;;15.20;9.15;;;2.80;85.90;;;;;;5094940;28;20036;-71
2021/12/11 03:11:07;;;;;;;13.93;9.32;;;2.70;85.90;;;;;;5095775;28;20148;-71
2021/12/11 03:13:38;;;;;;;15.50;9.35;;;2.70;85.80;;;;;;5094795;28;20103;-72
2021/12/11 03:16:04;;;;;;;14.63;9.00;;;2.70;85.90;;;;;;5095533;28;20070;-71
2021/12/11 03:18:30;;;;;;;12.70;8.63;;;2.70;85.90;;;;;;5095672;28;20024;-70
2021/12/11 03:20:56;;;;;;;12.75;8.23;;;2.70;85.90;;;;;;5095617;28;20172;-72
2021/12/11 03:23:22;;;;;;;16.00;9.00;;;2.70;85.90;;;;;;5094320;28;20032;-71
2021/12/11 03:25:48;;;;;;;14.15;8.93;;;2.80;85.90;;;;;;5093348;28;20035;-71
2021/12/11 03:28:17;;;;;;;14.80;8.68;;;2.80;85.80;;;;;;5094211;28;20064;-71
2021/12/11 03:30:50;;;;;;;13.45;8.38;;;2.90;85.70;;;;;;5094213;28;20047;-71
2021/12/11 03:33:17;;;;;;;;;;;2.90;85.60;;;;;;5095780;28;20495;-70
2021/12/11 03:35:44;;;;;;;15.20;8.80;;;2.90;85.50;;;;;;5095396;28;19904;-71
2021/12/11 03:38:10;;;;;;;14.93;9.50;;;2.90;85.50;;;;;;5093956;28;20016;-71
2021/12/11 03:40:36;;;;;;;14.05;8.63;;;2.90;85.40;;;;;;5094298;28;20119;-71
2021/12/11 03:43:07;;;;;;;14.45;8.90;;;2.90;85.40;;;;;;5093920;28;20511;-70
2021/12/11 03:45:36;;;;;;;13.90;9.00;;;2.90;85.30;;;;;;5093752;28;20177;-72
2021/12/11 03:48:14;;;;;;;15.20;9.68;;;2.90;85.40;;;;;;5093703;28;20027;-71
2021/12/11 03:50:40;;;;;;;13.70;8.63;;;2.90;85.30;;;;;;5093709;28;20487;-72
2021/12/11 03:53:07;;;;;;;12.93;8.90;;;2.90;85.30;;;;;;5093768;28;20021;-72
2021/12/11 03:55:38;;;;;;;15.73;8.93;;;2.90;85.30;;;;;;5093654;28;20495;-72
2021/12/11 03:58:06;;;;;;;14.90;9.63;;;2.90;85.40;;;;;;5093917;28;20114;-71
2021/12/11 04:01:06;;;;;;;16.42;9.40;;;2.90;85.50;;;;;;5093538;28;20016;-71
2021/12/11 04:03:34;;;;;;;14.88;9.40;;;2.80;85.40;;;;;;5091772;28;20493;-72
2021/12/11 04:06:03;;;;;;;16.45;9.35;;;2.80;85.50;;;;;;5093593;28;20016;-72
2021/12/11 04:08:34;;;;;;;13.73;9.93;;;2.70;85.50;;;;;;5093362;28;20099;-71
2021/12/11 04:11:00;;;;;;;15.68;9.50;;;2.70;85.50;;;;;;5093366;28;20016;-71
2021/12/11 04:13:26;;;;;;;13.43;8.75;;;2.70;85.60;;;;;;5093210;28;20024;-72
2021/12/11 04:15:54;;;;;;;14.57;9.55;;;2.70;85.60;;;;;;5093156;28;20352;-71
2021/12/11 04:18:20;;;;;;;16.60;9.25;;;2.70;85.60;;;;;;5093185;28;20024;-71
2021/12/11 04:20:48;;;;;;;14.90;9.02;;;2.60;85.50;;;;;;5093209;28;20495;-72
2021/12/11 04:23:14;;;;;;;16.52;9.52;;;2.60;85.60;;;;;;5093137;28;20051;-72
2021/12/11 04:25:49;;;;;;;14.95;8.25;;;2.60;85.70;;;;;;5093085;28;20039;-71
2021/12/11 04:28:17;;;;;;;16.02;8.90;;;2.60;85.80;;;;;;5093057;28;20081;-71
2021/12/11 04:30:47;;;;;;;16.25;8.90;;;2.60;85.80;;;;;;5093052;28;20379;-71
2021/12/11 04:33:13;;;;;;;10.93;8.38;;;2.60;85.90;;;;;;5094196;28;20548;-71
2021/12/11 04:35:41;;;;;;;15.55;9.90;;;2.60;85.90;;;;;;5094112;28;20100;-70
2021/12/11 04:38:08;;;;;;;11.80;8.25;;;2.60;85.90;;;;;;5094067;28;20008;-71
2021/12/11 04:40:37;;;;;;;13.05;8.82;;;2.70;85.90;;;;;;5093074;28;20024;-71
2021/12/11 04:43:10;;;;;;;13.43;8.68;;;2.70;85.90;;;;;;5092616;28;20073;-73
2021/12/11 04:45:54;;;;;;;14.23;8.97;;;2.80;85.90;;;;;;5092609;28;20024;-73
2021/12/11 04:48:54;;;;;;;13.73;8.40;;;2.80;85.80;;;;;;5092678;28;20066;-73
2021/12/11 04:51:29;;;;;;;13.15;8.60;;;2.90;85.70;;;;;;5092786;28;20055;-74
2021/12/11 04:54:28;;;;;;;11.63;8.20;;;2.90;85.60;;;;;;5093901;28;20043;-74
2021/12/11 04:59:51;;;;;;;14.95;9.15;;;3.00;85.60;;;;;;5093734;28;20383;-74
2021/12/11 05:07:34;;;;;;;13.27;8.70;;;3.10;85.40;;;;;;5094028;28;20088;-73
2021/12/11 05:10:14;;;;;;;14.23;8.40;;;3.20;85.40;;;;;;5092272;28;20031;-73
2021/12/11 05:12:41;;;;;;;16.40;9.10;;;3.20;85.30;;;;;;5093311;28;20027;-73
2021/12/11 05:15:44;;;;;;;15.13;9.30;;;3.30;85.30;;;;;;5092376;28;20031;-73
2021/12/11 05:18:17;;;;;;;14.82;8.70;;;3.30;85.30;;;;;;5070902;28;20119;-73
2021/12/11 05:20:46;;;;;;;13.50;9.07;;;3.40;85.30;;;;;;5086289;28;20028;-73
2021/12/11 05:23:12;;;;;;;15.18;9.10;;;3.40;85.20;;;;;;5092034;28;20054;-74
2021/12/11 05:25:38;;;;;;;15.55;9.35;;;3.50;85.20;;;;;;5091837;28;20028;-74
2021/12/11 05:28:04;;;;;;;11.95;8.68;;;3.40;85.10;;;;;;5091980;28;20026;-74
2021/12/11 05:30:34;;;;;;;12.68;8.50;;;3.50;85.20;;;;;;5091915;28;20468;-74
2021/12/11 05:33:00;;;;;;;14.00;8.80;;;3.50;85.20;;;;;;5092064;28;20494;-74
2021/12/11 05:35:29;;;;;;;14.32;8.90;;;3.60;85.20;;;;;;5091889;28;20020;-74
2021/12/11 05:37:55;;;;;;;15.75;9.70;;;3.60;85.20;;;;;;5091801;28;20016;-74
2021/12/11 05:40:26;;;;;;;13.98;8.38;;;3.60;85.10;;;;;;5091812;28;20577;-74
2021/12/11 05:42:52;;;;;;;15.07;9.15;;;3.60;85.10;;;;;;5091931;28;20024;-74
2021/12/11 05:45:19;;;;;;;14.55;9.02;;;3.60;85.10;;;;;;5091680;28;20130;-74
2021/12/11 05:47:45;;;;;;;14.38;8.82;;;3.70;85.20;;;;;;5092591;28;20032;-74
2021/12/11 05:50:16;;;;;;;14.52;9.18;;;3.70;85.80;;;;;;5091641;28;20081;-74
2021/12/11 05:52:42;;;;;;;16.35;9.90;;;3.70;85.20;;;;;;5092869;28;20035;-74
2021/12/11 05:55:13;;;;;;;15.32;9.30;;;3.70;85.20;;;;;;5092817;28;20309;-74
2021/12/11 05:57:39;;;;;;;14.30;8.80;;;3.70;85.30;;;;;;5092795;28;20027;-73
2021/12/11 06:00:08;;;;;;;17.38;9.23;;;3.80;85.30;;;;;;5091622;28;20024;-74
2021/12/11 06:02:34;;;;;;;14.00;9.75;;;3.80;85.30;;;;;;5091580;28;20028;-74
2021/12/11 06:05:00;;;;;;;14.48;9.40;;;3.70;85.30;;;;;;5092824;28;20487;-74
2021/12/11 06:07:28;;;;;;;16.27;9.65;;;3.80;85.40;;;;;;5092897;28;20035;-73
2021/12/11 06:10:01;;;;;;;16.50;9.52;;;3.80;85.40;;;;;;5091645;28;20020;-74
2021/12/11 06:12:27;;;;;;;13.73;9.02;;;3.70;85.40;;;;;;5091477;28;20035;-74
2021/12/11 06:14:54;;;;;;;14.07;8.88;;;3.80;85.50;;;;;;5092784;28;20448;-74
2021/12/11 06:17:29;;;;;;;14.23;8.57;;;3.80;85.50;;;;;;5091357;28;20135;-74
2021/12/11 06:19:57;;;;;;;12.38;8.30;;;3.80;85.50;;;;;;5092929;28;20478;-73
2021/12/11 06:22:27;;;;;;;14.52;9.05;;;3.80;85.50;;;;;;5091572;28;20480;-74
2021/12/11 06:24:54;;;;;;;14.90;8.85;;;3.90;85.50;;;;;;5091411;28;20028;-74
2021/12/11 06:27:21;;;;;;;13.65;8.85;;;3.90;85.50;;;;;;5091612;28;20067;-74
2021/12/11 06:29:46;;;;;;;13.40;8.60;;;3.90;85.60;;;;;;5092650;28;20032;-74
2021/12/11 06:32:12;;;;;;;13.77;8.48;;;3.90;85.60;;;;;;5091295;28;20026;-74
2021/12/11 06:34:38;;;;;;;12.18;8.32;;;3.90;85.60;;;;;;5091389;28;20107;-74
2021/12/11 06:37:06;;;;;;;13.85;8.10;;;4.00;85.70;;;;;;5092724;28;20119;-73
2021/12/11 06:39:32;;;;;;;12.85;7.68;;;4.00;85.70;;;;;;5091854;28;20454;-74
2021/12/11 06:42:01;;;;;;;14.55;9.00;;;4.00;85.70;;;;;;5091786;28;20059;-74
2021/12/11 06:44:28;;;;;;;11.98;8.43;;;4.00;85.70;;;;;;5091683;28;20036;-74
2021/12/11 06:46:59;;;;;;;16.42;9.80;;;4.00;85.80;;;;;;5091711;28;20039;-74
2021/12/11 06:49:28;;;;;;;15.00;9.52;;;4.00;85.80;;;;;;5093264;28;20028;-73
2021/12/11 06:51:54;;;;;;;15.40;9.80;;;4.00;85.80;;;;;;5093170;28;20032;-73
2021/12/11 06:54:21;;;;;;;13.68;9.07;;;4.00;85.80;;;;;;5091770;28;20428;-74
2021/12/11 06:56:48;;;;;;;14.13;8.75;;;4.00;85.90;;;;;;5093118;28;20028;-74
2021/12/11 06:59:14;;;;;;;14.07;8.90;;;4.10;85.90;;;;;;5093267;28;20028;-74
2021/12/11 07:01:41;;;;;;;14.70;8.82;;;4.10;85.90;;;;;;5096212;28;20024;-75
2021/12/11 07:04:09;;;;;;;10.77;7.57;;;4.10;86.00;;;;;;5095535;28;20024;-74
2021/12/11 07:06:37;;;;;;;13.00;8.52;;;4.10;85.90;;;;;;5096621;28;20432;-73
2021/12/11 07:09:05;;;;;;;11.85;8.18;;;4.10;86.60;;;;;;5095026;28;20059;-74
2021/12/11 07:11:31;;;;;;;12.00;8.00;;;4.10;86.00;;;;;;5095796;28;20051;-74
2021/12/11 07:13:57;;;;;;;13.32;8.80;;;4.10;86.00;;;;;;5094594;28;20527;-74
2021/12/11 07:16:24;;;;;;;13.77;8.05;;;4.10;86.00;;;;;;5095688;28;20048;-73
2021/12/11 07:18:50;;;;;;;15.88;9.23;;;4.10;86.00;;;;;;5095953;28;20024;-74
2021/12/11 07:21:17;;;;;;;14.73;9.15;;;4.10;86.00;;;;;;5095763;28;20024;-74
2021/12/11 07:23:48;;;;;;;17.02;9.75;;;4.10;86.00;;;;;;5094278;28;20031;-74
2021/12/11 07:26:18;;;;;;;13.93;8.65;;;4.10;86.10;;;;;;5094427;28;20024;-74
2021/12/11 07:28:48;;;;;;;14.02;9.68;;;4.10;86.10;;;;;;5095726;28;20031;-74
2021/12/11 07:31:14;;;;;;;15.25;9.13;;;4.20;86.20;;;;;;5095667;28;20016;-74
2021/12/11 07:33:40;;;;;;;14.13;9.30;;;4.20;86.20;;;;;;5094112;28;20107;-74
2021/12/11 07:36:06;;;;;;;15.93;8.88;;;4.20;86.20;;;;;;5094174;28;20450;-74
2021/12/11 07:38:32;;;;;;;17.10;9.18;;;4.20;86.10;;;;;;5094080;28;20032;-74
2021/12/11 07:41:02;;;;;;;13.32;8.32;;;4.20;86.20;;;;;;5094093;28;20028;-74
2021/12/11 07:43:28;;;;;;;15.27;8.35;;;4.20;86.10;;;;;;5095133;28;20034;-75
2021/12/11 07:45:59;;;;;;;14.43;8.35;;;4.20;86.10;;;;;;5095165;28;20028;-74
2021/12/11 07:48:25;;;;;;;14.85;8.82;;;4.20;86.10;;;;;;5093982;28;20032;-75
2021/12/11 07:50:51;;;;;;;13.63;8.40;;;4.10;86.10;;;;;;5093858;28;20025;-74
2021/12/11 07:53:18;;;;;;;16.05;9.00;;;4.20;86.20;;;;;;5093687;28;20032;-75
2021/12/11 07:55:44;;;;;;;12.80;7.90;;;4.20;86.30;;;;;;5093757;28;20020;-75
2021/12/11 07:58:10;;;;;;;13.85;9.18;;;4.20;86.30;;;;;;5095069;28;20416;-74
2021/12/11 08:00:39;;;;;;;13.13;8.45;;;4.20;86.30;;;;;;5093648;28;20031;-75
2021/12/11 08:03:08;;;;;;;12.48;8.25;;;4.20;86.30;;;;;;5093663;28;20016;-74
2021/12/11 08:05:34;;;;;;;16.35;9.23;;;4.20;86.30;;;;;;5094933;28;20093;-73
2021/12/11 08:08:03;;;;;;;13.10;8.52;;;4.20;86.30;;;;;;5093610;28;20479;-75
2021/12/11 08:10:30;;;;;;;15.52;9.93;;;4.20;86.30;;;;;;5093160;28;20031;-74
2021/12/11 08:12:58;;;;;;;14.38;8.80;;;4.20;86.30;;;;;;5094663;28;20032;-74
2021/12/11 08:15:23;;;;;;;16.40;9.48;;;4.10;86.30;;;;;;5093479;28;20020;-74
2021/12/11 08:17:54;;;;;;;15.05;9.30;;;4.10;86.40;;;;;;5093143;28;20400;-74
2021/12/11 08:20:27;;;;;;;15.00;9.43;;;4.20;86.40;;;;;;5093253;28;20016;-75
2021/12/11 08:22:54;;;;;;;16.17;9.73;;;4.20;86.40;;;;;;5093316;28;20487;-74
2021/12/11 08:25:21;;;;;;;16.40;10.05;;;4.20;86.40;;;;;;5093279;28;20380;-74
2021/12/11 08:27:49;;;;;;;15.63;10.48;;;4.20;86.40;;;;;;5094490;28;20480;-74
2021/12/11 08:30:15;;;;;;;16.08;10.45;;;4.20;86.40;;;;;;5094614;28;20491;-75
2021/12/11 08:32:42;;;;;;;16.42;9.20;;;4.30;86.50;;;;;;5094332;28;20031;-73
2021/12/11 08:35:10;;;;;;;15.75;9.82;;;4.20;86.40;;;;;;5093068;28;20028;-74
2021/12/11 08:37:40;;;;;;;16.90;10.20;;;4.30;87.10;;;;;;5093033;28;20012;-73
2021/12/11 08:40:09;;;;;;;14.05;9.15;;;4.30;86.50;;;;;;5094192;28;20025;-74
2021/12/11 08:42:35;;;;;;;16.70;10.93;;;4.30;86.50;;;;;;5094248;28;20051;-74
2021/12/11 08:45:06;;;;;;;16.20;10.45;;;4.30;86.50;;;;;;5092885;28;20503;-74
2021/12/11 08:47:36;;;;;;;17.73;10.77;;;4.40;86.50;;;;;;5092864;28;20041;-75
2021/12/11 08:50:04;;;;;;;18.05;10.45;;;4.40;86.50;;;;;;5090343;28;20032;-73
2021/12/11 08:52:35;;;;;;;17.38;10.38;;;4.40;86.50;;;;;;5092596;28;20023;-74
2021/12/11 08:55:03;;;;;;;15.98;10.30;;;4.50;86.60;;;;;;5094257;28;20020;-73
2021/12/11 08:57:33;;;;;;;15.63;9.98;;;4.50;86.60;;;;;;5092618;28;20448;-74
2021/12/11 09:00:11;;;;;;;17.88;9.95;;;4.50;86.60;;;;;;5092571;28;20016;-73
2021/12/11 09:02:43;;;;;;;15.05;10.43;;;4.50;86.50;;;;;;5094118;28;20039;-74
2021/12/11 09:05:11;;;;;;;14.35;9.57;;;4.60;86.60;;;;;;5092410;28;20077;-72
2021/12/11 09:07:39;;;;;;;13.90;8.57;;;4.60;86.60;;;;;;5092417;28;20065;-70
2021/12/11 09:10:05;;;;;;;17.13;10.57;;;4.70;86.50;;;;;;5092490;28;20020;-74
2021/12/11 09:12:35;;;;;;;15.18;9.75;;;4.70;86.50;;;;;;5092274;28;20070;-74
2021/12/11 09:15:12;;;;;;;14.57;10.23;;;4.70;86.50;;;;;;5092345;28;20027;-75
2021/12/11 09:17:45;;;;;;;16.60;10.32;;;4.70;86.60;;;;;;5092072;28;20071;-75
2021/12/11 09:20:37;;;;;;;15.90;10.05;;;4.70;86.60;;;;;;5093453;28;20028;-75
2021/12/11 09:23:27;;;;;;;17.08;10.43;;;4.70;86.70;;;;;;5088412;28;20032;-74
2021/12/11 09:26:07;;;;;;;15.63;10.55;;;4.70;86.80;;;;;;5091642;28;20566;-73
2021/12/11 09:28:38;;;;;;;15.43;9.90;;;4.80;86.80;;;;;;5093325;28;20420;-74
2021/12/11 09:31:07;;;;;;;17.92;10.55;;;4.80;86.70;;;;;;5092054;28;20027;-74
2021/12/11 09:33:37;;;;;;;17.90;11.18;;;4.90;86.70;;;;;;5091796;28;20031;-74
2021/12/11 09:36:13;;;;;;;22.10;12.02;;;4.90;86.70;;;;;;5093232;28;20448;-74
2021/12/11 09:38:43;;;;;;;20.95;12.35;;;5.00;86.70;;;;;;5091883;28;20066;-74
2021/12/11 09:44:40;;;;;;;15.80;10.57;;;5.10;86.70;;;;;;5093323;28;20371;-74
2021/12/11 09:47:29;;;;;;;16.23;10.68;;;5.10;86.70;;;;;;5093249;28;20425;-74
2021/12/11 09:50:02;;;;;;;16.67;11.63;;;5.10;86.60;;;;;;5093164;28;20043;-74
2021/12/11 09:52:30;;;;;;;19.13;11.20;;;5.20;86.70;;;;;;5091825;28;20028;-74
2021/12/11 09:55:02;;;;;;;17.27;11.48;;;5.30;86.70;;;;;;5092142;28;20472;-75
2021/12/11 09:57:34;;;;;;;18.50;12.10;;;5.30;86.70;;;;;;5091774;28;20024;-75
2021/12/11 10:00:05;;;;;;;19.95;12.23;;;5.30;86.70;;;;;;5091750;28;20020;-73
2021/12/11 10:02:32;;;;;;;17.13;11.32;;;5.40;86.70;;;;;;5089288;28;20039;-74
2021/12/11 10:05:28;;;;;;;18.55;12.18;;;5.50;86.80;;;;;;5091568;28;20035;-74
2021/12/11 10:08:13;;;;;;;18.02;12.10;;;5.50;86.70;;;;;;5091562;28;20035;-73
2021/12/11 10:10:40;;;;;;;18.60;11.80;;;5.50;86.60;;;;;;5091899;28;20032;-73
2021/12/11 10:13:06;;;;;;;17.48;11.38;;;5.50;87.30;;;;;;5092589;28;20020;-74
2021/12/11 10:15:35;;;;;;;18.77;12.38;;;5.60;86.80;;;;;;5092907;28;20035;-74
2021/12/11 10:18:11;;;;;;;18.08;11.80;;;5.60;86.80;;;;;;5092491;28;20384;-73
2021/12/11 10:20:43;;;;;;;18.92;11.98;;;5.70;86.80;;;;;;5092920;28;20052;-74
2021/12/11 10:23:14;;;;;;;18.70;12.18;;;5.80;86.80;;;;;;5092661;28;20028;-74
2021/12/11 10:25:42;;;;;;;20.15;12.82;;;5.80;86.70;;;;;;5091243;28;20023;-74
2021/12/11 10:28:11;;;;;;;19.55;12.55;;;5.80;86.60;;;;;;5091383;28;20028;-74
2021/12/11 10:30:44;;;;;;;20.60;12.52;;;5.80;86.60;;;;;;5091283;28;20027;-74
2021/12/11 10:33:10;;;;;;;19.23;12.77;;;5.90;86.60;;;;;;5091278;28;20035;-77
2021/12/11 10:35:40;;;;;;;20.92;13.00;;;5.90;86.60;;;;;;5096116;28;20388;-77
2021/12/11 10:38:07;;;;;;;20.33;12.43;;;5.90;86.60;;;;;;5095499;28;20073;-78
2021/12/11 10:40:38;;;;;;;19.83;12.60;;;5.90;86.50;;;;;;5095438;28;20020;-78
2021/12/11 10:43:10;;;;;;;21.67;12.13;;;5.90;86.60;;;;;;5096584;28;20507;-78
2021/12/11 10:45:36;;;;;;;33.60;12.55;;;5.90;86.60;;;;;;5096828;28;20020;-78
2021/12/11 10:48:07;;;;;;;24.13;12.63;;;6.00;86.70;;;;;;5095578;28;20375;-78
2021/12/11 10:50:45;;;;;;;20.85;12.05;;;6.00;86.70;;;;;;5095195;28;20047;-78
2021/12/11 10:53:14;;;;;;;30.67;11.95;;;6.00;86.70;;;;;;5095149;28;20023;-78
2021/12/11 10:55:41;;;;;;;33.03;13.90;;;6.00;86.80;;;;;;5096350;28;20099;-78
2021/12/11 10:58:13;;;;;;;28.27;15.35;;;6.00;86.80;;;;;;5095114;28;20016;-78
2021/12/11 11:00:50;;;;;;;25.38;14.15;;;6.00;87.10;;;;;;5095989;28;20012;-78
2021/12/11 11:03:16;;;;;;;20.90;13.30;;;6.00;87.40;;;;;;5094917;28;20507;-80
2021/12/11 11:05:43;;;;;;;28.33;13.48;;;6.10;87.50;;;;;;5096261;28;20365;-79
2021/12/11 11:08:10;;;;;;;29.55;12.75;;;6.20;87.60;;;;;;5094960;28;20020;-79
2021/12/11 11:10:41;;;;;;;29.65;11.10;;;6.20;87.50;;;;;;5092187;28;20514;-79
2021/12/11 11:13:11;;;;;;;16.50;9.88;;;6.20;87.20;;;;;;5094749;28;20028;-79
2021/12/11 11:15:38;;;;;;;30.38;11.02;;;6.20;87.20;;;;;;5091821;28;20496;-80
2021/12/11 11:18:05;;;;;;;26.45;9.88;;;6.20;87.30;;;;;;5094750;28;20128;-77
2021/12/11 11:20:37;;;;;;;25.73;10.40;;;6.20;87.30;;;;;;5096125;28;20452;-77
2021/12/11 11:23:04;;;;;;;32.13;10.00;;;6.20;87.20;;;;;;5094801;28;20094;-78
2021/12/11 11:25:35;;;;;;;28.83;14.55;;;6.10;87.20;;;;;;5095996;28;20031;-77
2021/12/11 11:28:08;;;;;;;25.98;12.32;;;6.20;87.30;;;;;;5091708;28;20040;-77
2021/12/11 11:30:39;;;;;;;23.83;10.87;;;6.20;87.40;;;;;;5094573;28;20127;-77
2021/12/11 11:33:07;;;;;;;44.42;11.07;;;6.20;87.40;;;;;;5094407;28;20098;-77
2021/12/11 11:35:38;;;;;;;26.08;10.63;;;6.20;87.30;;;;;;5095815;28;20536;-77
2021/12/11 11:38:05;;;;;;;28.17;9.50;;;6.20;87.10;;;;;;5095756;28;20030;-77
2021/12/11 11:40:36;;;;;;;40.67;10.27;;;6.10;87.10;;;;;;5094380;28;20030;-79
2021/12/11 11:43:05;;;;;;;27.50;10.50;;;6.20;87.40;;;;;;5094974;28;20046;-77
2021/12/11 11:45:34;;;;;;;35.08;10.52;;;6.20;87.40;;;;;;5094957;28;20506;-77
2021/12/11 11:48:01;;;;;;;17.70;9.75;;;6.20;87.40;;;;;;5095814;28;20042;-79
2021/12/11 11:50:31;;;;;;;26.92;9.90;;;6.20;87.30;;;;;;5095612;28;20020;-79
2021/12/11 11:52:57;;;;;;;26.92;10.25;;;6.30;87.30;;;;;;5095428;28;20036;-80
2021/12/11 11:55:30;;;;;;;26.23;9.88;;;6.30;87.20;;;;;;5096798;28;20078;-76
2021/12/11 11:57:57;;;;;;;38.78;11.55;;;6.30;87.20;;;;;;5096515;28;20025;-79
2021/12/11 12:00:41;;;;;;;20.70;9.23;;;6.30;87.80;;;;;;5095460;28;20024;-79
2021/12/11 12:03:08;;;;;;;33.30;9.65;;;6.30;87.10;;;;;;5095152;28;20089;-79
2021/12/11 12:05:36;;;;;;;16.77;8.88;;;6.30;87.10;;;;;;5095068;28;20039;-78
2021/12/11 12:08:04;;;;;;;28.55;10.05;;;6.30;87.30;;;;;;5095029;28;20361;-78
2021/12/11 12:10:30;;;;;;;16.85;9.30;;;6.30;87.30;;;;;;5095110;28;20031;-78
2021/12/11 12:12:56;;;;;;;14.60;9.88;;;6.30;87.20;;;;;;5093737;28;20024;-78
2021/12/11 12:15:29;;;;;;;17.88;10.25;;;6.30;87.20;;;;;;5095026;28;20072;-78
2021/12/11 12:17:55;;;;;;;14.90;9.65;;;6.30;87.20;;;;;;5093452;28;20040;-78
2021/12/11 12:20:21;;;;;;;20.77;9.95;;;6.30;87.20;;;;;;5093667;28;20030;-78
2021/12/11 12:22:50;;;;;;;24.45;12.15;;;6.30;87.20;;;;;;5093364;28;20028;-78
2021/12/11 12:25:16;;;;;;;27.50;11.38;;;6.30;87.20;;;;;;5093772;28;20122;-78
2021/12/11 12:27:43;;;;;;;25.63;10.82;;;6.30;87.40;;;;;;5091621;28;20043;-79
2021/12/11 12:30:17;;;;;;;22.77;11.40;;;6.30;87.40;;;;;;5093246;28;20032;-79
2021/12/11 12:32:44;;;;;;;16.58;9.98;;;6.30;88.00;;;;;;5090241;28;20032;-78
2021/12/11 12:35:13;;;;;;;16.83;9.65;;;6.30;87.30;;;;;;5093316;28;20557;-78
2021/12/11 12:37:40;;;;;;;15.13;9.85;;;6.30;87.50;;;;;;5093158;28;20395;-79
2021/12/11 12:46:23;;;;;;;15.10;8.45;;;6.20;87.40;;;;;;5094699;28;20101;-78
2021/12/11 12:48:49;;;;;;;14.90;9.20;;;6.20;87.50;;;;;;5093089;28;20024;-79
2021/12/11 12:51:16;;;;;;;17.88;9.45;;;6.20;87.60;;;;;;5094553;28;20468;-79
2021/12/11 12:53:44;;;;;;;16.35;9.80;;;6.20;87.60;;;;;;5094038;28;20487;-79
2021/12/11 12:56:15;;;;;;;27.30;10.48;;;6.30;87.70;;;;;;5093010;28;20028;-78
2021/12/11 12:58:46;;;;;;;16.08;10.18;;;6.40;88.30;;;;;;5092072;28;20030;-79
2021/12/11 13:01:17;;;;;;;21.70;12.57;;;6.50;87.70;;;;;;5094053;28;20020;-79
2021/12/11 13:03:45;;;;;;;24.30;12.90;;;6.50;87.70;;;;;;5094418;28;20032;-79
2021/12/11 13:06:28;;;;;;;24.73;12.73;;;6.60;87.70;;;;;;5092668;28;20047;-79
2021/12/11 13:09:08;;;;;;;21.15;12.23;;;6.70;87.70;;;;;;5092856;28;20051;-79
2021/12/11 13:11:48;;;;;;;20.38;12.65;;;6.80;87.50;;;;;;5092391;28;20024;-79
2021/12/11 13:14:14;;;;;;;23.20;12.77;;;6.90;87.40;;;;;;5093476;28;20020;-78
2021/12/11 13:16:47;;;;;;;26.83;13.88;;;7.00;87.30;;;;;;5094159;28;20110;-79
2021/12/11 13:19:22;;;;;;;25.23;13.35;;;7.00;87.30;;;;;;5093341;28;20115;-78
2021/12/11 13:21:56;;;;;;;21.33;12.38;;;7.00;87.30;;;;;;5093647;28;20037;-78
2021/12/11 13:24:22;;;;;;;20.65;12.48;;;7.00;87.20;;;;;;5092275;28;20039;-79
2021/12/11 13:26:55;;;;;;;21.25;11.98;;;7.00;87.20;;;;;;5092242;28;20024;-79